createdAt,value
2023-12-20T00:01:09.327Z,19.07
2023-12-20T00:03:42.074Z,19.77
2023-12-20T00:06:10.664Z,19.37
2023-12-20T00:08:37.762Z,20.00
2023-12-20T00:11:04.788Z,21.40
2023-12-20T00:13:31.732Z,23.40
2023-12-20T00:15:58.738Z,22.00
2023-12-20T00:18:25.781Z,22.03
2023-12-20T00:20:52.682Z,21.20
2023-12-20T00:23:19.645Z,19.13
2023-12-20T00:25:46.554Z,18.93
2023-12-20T00:28:13.577Z,18.77
2023-12-20T00:30:40.903Z,18.67
2023-12-20T00:33:09.040Z,17.80
2023-12-20T00:35:37.338Z,18.27
2023-12-20T00:38:06.320Z,18.97
2023-12-20T00:40:34.175Z,18.80
2023-12-20T00:43:01.229Z,18.40
2023-12-20T00:45:28.200Z,19.07
2023-12-20T00:47:55.232Z,18.07
2023-12-20T00:50:25.050Z,18.63
2023-12-20T00:52:53.618Z,18.60
2023-12-20T00:55:20.742Z,17.67
2023-12-20T00:57:48.671Z,18.10
2023-12-20T01:00:16.184Z,17.30
2023-12-20T01:02:43.088Z,16.97
2023-12-20T01:05:10.553Z,16.80
2023-12-20T01:07:37.533Z,17.13
2023-12-20T01:10:04.844Z,17.00
2023-12-20T01:12:31.894Z,16.73
2023-12-20T01:14:59.805Z,15.97
2023-12-20T01:17:26.905Z,16.03
2023-12-20T01:19:54.841Z,16.03
2023-12-20T01:22:22.950Z,15.93
2023-12-20T01:24:49.956Z,16.07
2023-12-20T01:27:17.943Z,16.30
2023-12-20T01:29:46.183Z,15.37
2023-12-20T01:32:14.016Z,16.53
2023-12-20T01:34:41.134Z,15.77
2023-12-20T01:37:08.905Z,16.30
2023-12-20T01:39:36.910Z,16.63
2023-12-20T01:42:03.999Z,17.43
2023-12-20T01:44:32.303Z,17.67
2023-12-20T01:46:59.927Z,17.63
2023-12-20T01:49:27.347Z,18.80
2023-12-20T01:51:56.555Z,18.57
2023-12-20T01:54:23.855Z,20.37
2023-12-20T01:56:52.002Z,19.70
2023-12-20T01:59:21.220Z,19.47
2023-12-20T02:01:48.501Z,18.17
2023-12-20T02:04:16.534Z,20.13
2023-12-20T02:06:44.931Z,26.57
2023-12-20T02:09:12.269Z,25.17
2023-12-20T02:11:39.549Z,29.00
2023-12-20T02:14:06.725Z,30.27
2023-12-20T02:16:33.716Z,28.77
2023-12-20T02:19:00.841Z,28.03
2023-12-20T02:21:33.826Z,13.03
2023-12-20T02:24:00.732Z,10.80
2023-12-20T02:26:28.074Z,5.87
2023-12-20T02:28:58.019Z,3.70
2023-12-20T02:31:25.977Z,2.63
2023-12-20T02:33:52.982Z,2.77
2023-12-20T02:36:20.844Z,2.60
2023-12-20T02:38:48.052Z,2.50
2023-12-20T02:41:17.998Z,2.40
2023-12-20T02:43:45.308Z,2.50
2023-12-20T02:46:12.965Z,2.40
2023-12-20T02:48:40.136Z,2.70
2023-12-20T02:51:07.124Z,2.53
2023-12-20T02:53:35.407Z,2.50
2023-12-20T02:56:02.337Z,2.83
2023-12-20T02:58:29.995Z,2.43
2023-12-20T03:00:57.041Z,3.07
2023-12-20T03:03:24.770Z,2.73
2023-12-20T03:05:51.848Z,2.80
2023-12-20T03:08:20.035Z,3.00
2023-12-20T03:10:47.876Z,2.83
2023-12-20T03:13:16.201Z,2.67
2023-12-20T03:15:43.966Z,2.80
2023-12-20T03:18:12.994Z,2.90
2023-12-20T03:20:40.027Z,2.90
2023-12-20T03:23:07.039Z,2.80
2023-12-20T03:25:34.838Z,2.70
2023-12-20T03:28:02.075Z,2.93
2023-12-20T03:30:29.822Z,3.07
2023-12-20T03:32:58.047Z,3.10
2023-12-20T03:35:24.990Z,3.00
2023-12-20T03:37:51.936Z,2.80
2023-12-20T03:40:19.947Z,2.80
2023-12-20T03:42:48.414Z,3.10
2023-12-20T03:45:15.809Z,3.20
2023-12-20T03:47:43.497Z,2.90
2023-12-20T03:50:11.853Z,3.03
2023-12-20T03:52:38.859Z,3.13
2023-12-20T03:55:07.580Z,3.00
2023-12-20T03:57:34.514Z,2.57
2023-12-20T04:00:01.852Z,2.83
2023-12-20T04:02:40.046Z,3.10
2023-12-20T04:05:07.895Z,2.90
2023-12-20T04:07:35.380Z,2.70
2023-12-20T04:10:02.942Z,2.90
2023-12-20T04:12:30.022Z,2.83
2023-12-20T04:14:57.407Z,2.80
2023-12-20T04:17:24.642Z,2.53
2023-12-20T04:19:52.528Z,2.80
2023-12-20T04:22:20.190Z,2.80
2023-12-20T04:24:47.280Z,2.70
2023-12-20T04:27:14.199Z,2.90
2023-12-20T04:29:41.207Z,2.80
2023-12-20T04:32:08.237Z,2.87
2023-12-20T04:34:35.680Z,2.97
2023-12-20T04:37:03.201Z,2.90
2023-12-20T04:39:30.284Z,2.80
2023-12-20T04:41:57.341Z,2.80
2023-12-20T04:44:24.805Z,3.30
2023-12-20T04:46:51.740Z,3.30
2023-12-20T04:49:18.758Z,3.30
2023-12-20T04:51:45.762Z,3.20
2023-12-20T04:54:12.850Z,3.40
2023-12-20T04:56:40.178Z,3.40
2023-12-20T04:59:07.101Z,3.60
2023-12-20T05:01:34.215Z,3.00
2023-12-20T05:04:01.848Z,3.20
2023-12-20T05:06:29.806Z,3.13
2023-12-20T05:08:56.737Z,3.67
2023-12-20T05:11:23.818Z,3.60
2023-12-20T05:13:50.999Z,3.47
2023-12-20T05:16:20.084Z,3.57
2023-12-20T05:18:51.138Z,3.80
2023-12-20T05:21:18.082Z,3.57
2023-12-20T05:23:44.993Z,3.63
2023-12-20T05:26:11.951Z,3.73
2023-12-20T05:28:38.865Z,3.87
2023-12-20T05:31:05.840Z,3.87
2023-12-20T05:33:33.918Z,3.80
2023-12-20T05:36:05.189Z,3.83
2023-12-20T05:38:32.138Z,3.47
2023-12-20T05:40:59.078Z,3.60
2023-12-20T05:43:25.966Z,3.47
2023-12-20T05:45:52.952Z,3.60
2023-12-20T05:48:20.986Z,3.40
2023-12-20T05:50:47.887Z,3.60
2023-12-20T05:53:15.151Z,3.67
2023-12-20T05:55:42.798Z,3.93
2023-12-20T05:58:09.941Z,4.20
2023-12-20T06:00:36.969Z,3.80
2023-12-20T06:03:06.099Z,3.77
2023-12-20T06:05:34.310Z,3.57
2023-12-20T06:08:04.095Z,3.97
2023-12-20T06:10:31.159Z,3.40
2023-12-20T06:12:59.933Z,3.50
2023-12-20T06:15:26.878Z,3.40
2023-12-20T06:17:53.834Z,3.87
2023-12-20T06:20:20.877Z,4.23
2023-12-20T06:22:47.993Z,4.67
2023-12-20T06:25:15.597Z,4.63
2023-12-20T06:27:42.795Z,3.43
2023-12-20T06:30:10.537Z,3.50
2023-12-20T06:32:38.965Z,3.13
2023-12-20T06:35:06.599Z,3.67
2023-12-20T06:37:33.514Z,3.67
2023-12-20T06:40:00.922Z,3.53
2023-12-20T06:42:30.246Z,3.47
2023-12-20T06:44:58.451Z,3.30
2023-12-20T06:47:25.866Z,3.27
2023-12-20T06:49:53.014Z,3.37
2023-12-20T06:52:20.186Z,3.20
2023-12-20T06:54:47.604Z,3.77
2023-12-20T06:57:14.691Z,3.40
2023-12-20T06:59:45.545Z,3.17
2023-12-20T07:02:15.167Z,3.23
2023-12-20T07:04:42.919Z,3.73
2023-12-20T07:07:10.265Z,3.60
2023-12-20T07:09:39.697Z,3.70
2023-12-20T07:12:06.927Z,3.37
2023-12-20T07:14:34.324Z,3.63
2023-12-20T07:17:01.291Z,3.93
2023-12-20T07:19:28.280Z,3.47
2023-12-20T07:21:55.887Z,3.30
2023-12-20T07:24:22.933Z,3.60
2023-12-20T07:26:49.942Z,4.00
2023-12-20T07:29:17.126Z,3.63
2023-12-20T07:31:44.099Z,4.00
2023-12-20T07:34:11.403Z,3.97
2023-12-20T07:36:38.591Z,4.20
2023-12-20T07:39:05.540Z,3.90
2023-12-20T07:41:33.538Z,3.80
2023-12-20T07:44:00.603Z,3.70
2023-12-20T07:46:29.059Z,3.70
2023-12-20T07:48:56.254Z,4.50
2023-12-20T07:51:23.684Z,4.20
2023-12-20T07:53:50.943Z,4.50
2023-12-20T07:56:19.876Z,4.17
2023-12-20T07:58:52.444Z,4.23
2023-12-20T08:01:22.475Z,4.17
2023-12-20T08:03:51.763Z,4.40
2023-12-20T08:06:19.225Z,4.30
2023-12-20T08:08:52.501Z,4.40
2023-12-20T08:11:22.897Z,4.30
2023-12-20T08:13:53.367Z,4.30
2023-12-20T08:16:20.517Z,4.53
2023-12-20T08:18:49.039Z,4.17
2023-12-20T08:21:16.135Z,4.40
2023-12-20T08:23:44.630Z,4.40
2023-12-20T08:26:12.881Z,4.57
2023-12-20T08:28:39.925Z,4.40
2023-12-20T08:31:08.000Z,4.17
2023-12-20T08:33:35.875Z,4.20
2023-12-20T08:36:06.394Z,4.20
2023-12-20T08:38:33.333Z,4.37
2023-12-20T08:41:00.210Z,4.20
2023-12-20T08:43:27.302Z,4.33
2023-12-20T08:45:54.271Z,4.27
2023-12-20T08:48:21.941Z,4.20
2023-12-20T08:50:51.605Z,4.10
2023-12-20T08:53:19.239Z,4.63
2023-12-20T08:55:46.973Z,4.47
2023-12-20T08:58:14.437Z,3.90
2023-12-20T09:00:41.790Z,4.73
2023-12-20T09:03:09.330Z,4.07
2023-12-20T09:05:36.427Z,4.03
2023-12-20T09:08:03.658Z,3.87
2023-12-20T09:10:30.998Z,4.00
2023-12-20T09:12:58.635Z,4.07
2023-12-20T09:15:27.140Z,4.20
2023-12-20T09:17:54.979Z,3.63
2023-12-20T09:20:22.538Z,3.30
2023-12-20T09:22:49.491Z,3.40
2023-12-20T09:25:18.727Z,3.30
2023-12-20T09:27:46.014Z,2.80
2023-12-20T09:30:13.609Z,2.90
2023-12-20T09:32:52.916Z,2.90
2023-12-20T09:35:20.014Z,2.70
2023-12-20T09:37:48.308Z,2.30
2023-12-20T09:40:15.883Z,2.40
2023-12-20T09:43:00.129Z,2.50
2023-12-20T09:45:27.608Z,2.50
2023-12-20T09:47:55.920Z,4.33
2023-12-20T09:50:23.726Z,4.07
2023-12-20T09:52:57.374Z,3.50
2023-12-20T09:55:26.902Z,5.77
2023-12-20T09:57:54.095Z,5.23
2023-12-20T10:00:21.289Z,9.50
2023-12-20T10:03:01.731Z,6.93
2023-12-20T10:05:34.238Z,6.73
2023-12-20T10:08:03.283Z,9.77
2023-12-20T10:10:38.376Z,7.20
2023-12-20T10:13:13.346Z,4.83
2023-12-20T10:15:42.311Z,5.97
2023-12-20T10:18:10.434Z,5.57
2023-12-20T10:20:37.946Z,6.70
2023-12-20T10:23:05.145Z,4.93
2023-12-20T10:25:33.345Z,5.63
2023-12-20T10:28:12.744Z,5.60
2023-12-20T10:30:42.207Z,3.80
2023-12-20T10:33:11.143Z,3.50
2023-12-20T10:35:45.101Z,3.70
2023-12-20T10:38:15.687Z,3.33
2023-12-20T10:40:44.300Z,3.20
2023-12-20T10:43:12.426Z,4.33
2023-12-20T10:45:39.732Z,3.73
2023-12-20T10:48:07.112Z,3.53
2023-12-20T10:50:37.278Z,7.17
2023-12-20T10:53:04.568Z,4.70
2023-12-20T10:55:31.845Z,4.10
2023-12-20T10:58:03.700Z,4.13
2023-12-20T11:00:32.659Z,3.70
2023-12-20T11:03:05.466Z,3.80
2023-12-20T11:05:53.678Z,3.50
2023-12-20T11:08:40.879Z,3.87
2023-12-20T11:11:26.597Z,3.00
2023-12-20T11:14:06.497Z,5.60
2023-12-20T11:16:41.658Z,3.97
2023-12-20T11:19:15.938Z,3.43
2023-12-20T11:21:43.104Z,2.80
2023-12-20T11:24:11.100Z,2.90
2023-12-20T11:26:38.177Z,2.80
2023-12-20T11:29:40.926Z,3.07
2023-12-20T11:32:34.433Z,2.43
2023-12-20T11:35:18.085Z,4.00
2023-12-20T11:37:46.128Z,3.53
2023-12-20T11:40:18.629Z,3.00
2023-12-20T11:42:49.551Z,2.60
2023-12-20T11:45:22.890Z,3.37
2023-12-20T11:47:52.013Z,3.30
2023-12-20T11:50:20.433Z,4.23
2023-12-20T11:52:48.365Z,3.07
2023-12-20T11:55:15.502Z,3.53
2023-12-20T11:57:44.554Z,5.87
2023-12-20T12:00:12.201Z,4.57
2023-12-20T12:02:39.142Z,4.40
2023-12-20T12:05:06.957Z,6.47
2023-12-20T12:07:35.822Z,5.30
2023-12-20T12:10:04.919Z,3.30
2023-12-20T12:12:33.576Z,3.00
2023-12-20T12:15:00.891Z,3.50
2023-12-20T12:17:28.620Z,3.13
2023-12-20T12:20:07.179Z,2.80
2023-12-20T12:22:34.885Z,2.73
2023-12-20T12:25:12.556Z,2.83
2023-12-20T12:27:46.139Z,2.70
2023-12-20T12:30:14.845Z,2.57
2023-12-20T12:32:42.454Z,4.07
2023-12-20T12:35:10.904Z,2.60
2023-12-20T12:37:42.103Z,2.53
2023-12-20T12:40:14.482Z,3.27
2023-12-20T12:42:44.326Z,2.30
2023-12-20T12:45:15.112Z,2.47
2023-12-20T12:47:42.485Z,4.23
2023-12-20T12:50:10.253Z,3.13
2023-12-20T12:52:37.434Z,2.90
2023-12-20T12:55:06.128Z,2.53
2023-12-20T12:57:34.807Z,3.13
2023-12-20T13:00:02.187Z,2.90
2023-12-20T13:02:29.194Z,3.07
2023-12-20T13:04:56.233Z,2.87
2023-12-20T13:07:23.332Z,2.30
2023-12-20T13:09:50.431Z,2.50
2023-12-20T13:12:17.359Z,2.10
2023-12-20T13:14:44.322Z,2.23
2023-12-20T13:17:11.755Z,2.10
2023-12-20T13:19:39.124Z,2.20
2023-12-20T13:22:06.221Z,2.60
2023-12-20T13:24:33.646Z,3.17
2023-12-20T13:27:00.617Z,3.67
2023-12-20T13:29:30.528Z,2.83
2023-12-20T13:31:58.791Z,2.87
2023-12-20T13:34:26.153Z,2.60
2023-12-20T13:36:53.437Z,2.40
2023-12-20T13:39:20.398Z,2.87
2023-12-20T13:41:47.366Z,3.57
2023-12-20T13:44:14.726Z,3.83
2023-12-20T13:46:42.816Z,2.90
2023-12-20T13:49:10.049Z,3.13
2023-12-20T13:51:37.161Z,3.60
2023-12-20T13:54:04.265Z,3.17
2023-12-20T13:56:32.113Z,2.83
2023-12-20T13:59:00.896Z,3.00
2023-12-20T14:01:27.948Z,2.73
2023-12-20T14:03:54.931Z,2.70
2023-12-20T14:06:21.907Z,2.60
2023-12-20T14:08:49.478Z,3.40
2023-12-20T14:11:16.883Z,3.40
2023-12-20T14:13:44.561Z,3.70
2023-12-20T14:16:12.098Z,2.40
2023-12-20T14:18:41.268Z,2.50
2023-12-20T14:21:08.265Z,2.03
2023-12-20T14:23:35.274Z,2.20
2023-12-20T14:26:03.451Z,2.17
2023-12-20T14:28:30.645Z,3.13
2023-12-20T14:30:57.785Z,2.80
2023-12-20T14:33:25.361Z,2.80
2023-12-20T14:35:52.264Z,2.87
2023-12-20T14:38:19.648Z,4.47
2023-12-20T14:40:46.616Z,2.80
2023-12-20T14:43:13.733Z,2.70
2023-12-20T14:45:40.711Z,2.20
2023-12-20T14:48:08.234Z,2.03
2023-12-20T14:50:35.327Z,2.40
2023-12-20T14:53:02.264Z,2.30
2023-12-20T14:55:31.000Z,2.90
2023-12-20T14:57:58.285Z,2.50
2023-12-20T15:00:25.248Z,2.40
2023-12-20T15:02:52.360Z,4.00
2023-12-20T15:05:19.761Z,3.43
2023-12-20T15:07:49.316Z,3.00
2023-12-20T15:10:18.208Z,2.67
2023-12-20T15:12:46.139Z,2.30
2023-12-20T15:15:13.216Z,2.70
2023-12-20T15:17:40.333Z,2.90
2023-12-20T15:20:07.627Z,2.30
2023-12-20T15:22:35.180Z,2.10
2023-12-20T15:25:02.908Z,2.10
2023-12-20T15:27:30.090Z,2.10
2023-12-20T15:29:57.213Z,2.67
2023-12-20T15:32:24.190Z,2.30
2023-12-20T15:34:52.519Z,2.60
2023-12-20T15:37:19.623Z,2.40
2023-12-20T15:39:46.774Z,2.10
2023-12-20T15:42:13.800Z,2.90
2023-12-20T15:44:40.797Z,2.87
2023-12-20T15:47:08.367Z,2.60
2023-12-20T15:49:35.778Z,2.60
2023-12-20T15:52:06.916Z,3.03
2023-12-20T15:54:34.326Z,2.90
2023-12-20T15:57:01.309Z,2.57
2023-12-20T15:59:28.269Z,2.90
2023-12-20T16:01:55.535Z,2.57
2023-12-20T16:04:22.850Z,2.87
2023-12-20T16:06:51.264Z,3.00
2023-12-20T16:09:18.283Z,3.90
2023-12-20T16:11:45.760Z,3.17
2023-12-20T16:14:18.560Z,3.17
2023-12-20T16:16:46.000Z,5.97
2023-12-20T16:19:13.320Z,4.13
2023-12-20T16:21:40.299Z,3.70
2023-12-20T16:24:07.724Z,2.63
2023-12-20T16:26:35.784Z,2.70
2023-12-20T16:29:02.906Z,2.90
2023-12-20T16:31:30.155Z,3.87
2023-12-20T16:33:57.805Z,3.50
2023-12-20T16:36:24.884Z,3.43
2023-12-20T16:38:51.872Z,5.00
2023-12-20T16:41:19.129Z,6.10
2023-12-20T16:43:46.927Z,4.30
2023-12-20T16:46:14.623Z,3.93
2023-12-20T16:48:41.651Z,4.13
2023-12-20T16:51:08.609Z,3.80
2023-12-20T16:53:35.640Z,5.27
2023-12-20T16:56:02.615Z,3.93
2023-12-20T16:58:29.884Z,4.83
2023-12-20T17:00:58.269Z,3.80
2023-12-20T17:03:27.419Z,3.60
2023-12-20T17:05:54.570Z,7.03
2023-12-20T17:08:21.594Z,5.87
2023-12-20T17:10:48.733Z,4.40
2023-12-20T17:13:15.860Z,3.67
2023-12-20T17:15:42.896Z,3.73
2023-12-20T17:18:12.321Z,3.43
2023-12-20T17:20:39.446Z,5.63
2023-12-20T17:23:06.746Z,4.00
2023-12-20T17:25:40.474Z,2.40
2023-12-20T17:28:08.149Z,2.10
2023-12-20T17:30:35.813Z,2.47
2023-12-20T17:33:05.133Z,2.50
2023-12-20T17:35:32.124Z,2.10
2023-12-20T17:37:59.131Z,2.30
2023-12-20T17:40:26.100Z,2.00
2023-12-20T17:42:53.218Z,2.10
2023-12-20T17:45:20.149Z,2.50
2023-12-20T17:47:50.532Z,2.83
2023-12-20T17:50:17.795Z,2.83
2023-12-20T17:52:45.011Z,2.63
2023-12-20T17:55:12.248Z,3.00
2023-12-20T17:57:39.227Z,2.80
2023-12-20T18:00:24.242Z,2.70
2023-12-20T18:02:53.612Z,3.40
2023-12-20T18:05:22.586Z,4.03
2023-12-20T18:07:51.927Z,3.30
2023-12-20T18:10:20.719Z,2.40
2023-12-20T18:12:49.058Z,2.60
2023-12-20T18:15:16.797Z,2.93
2023-12-20T18:17:44.555Z,2.60
2023-12-20T18:20:14.522Z,2.50
2023-12-20T18:22:43.760Z,3.00
2023-12-20T18:25:11.545Z,2.67
2023-12-20T18:27:41.948Z,2.40
2023-12-20T18:30:15.857Z,2.63
2023-12-20T18:32:46.553Z,2.87
2023-12-20T18:35:14.980Z,2.43
2023-12-20T18:37:43.104Z,2.77
2023-12-20T18:40:12.111Z,2.73
2023-12-20T18:42:41.739Z,2.20
2023-12-20T18:45:10.067Z,2.40
2023-12-20T18:47:37.882Z,2.07
2023-12-20T18:50:10.100Z,2.30
2023-12-20T18:52:38.573Z,2.07
2023-12-20T18:55:06.635Z,2.30
2023-12-20T18:57:34.857Z,2.20
2023-12-20T19:00:04.972Z,2.40
2023-12-20T19:02:38.217Z,2.33
2023-12-20T19:05:07.116Z,2.47
2023-12-20T19:07:35.217Z,2.30
2023-12-20T19:10:03.392Z,2.80
2023-12-20T19:12:31.385Z,2.50
2023-12-20T19:14:59.343Z,2.60
2023-12-20T19:17:27.307Z,2.10
2023-12-20T19:19:55.496Z,2.40
2023-12-20T19:22:23.912Z,2.30
2023-12-20T19:24:52.079Z,2.07
2023-12-20T19:27:20.051Z,2.50
2023-12-20T19:29:49.558Z,2.53
2023-12-20T19:32:17.889Z,2.60
2023-12-20T19:34:46.045Z,2.40
2023-12-20T19:37:14.205Z,3.20
2023-12-20T19:39:43.358Z,3.13
2023-12-20T19:42:12.809Z,2.37
2023-12-20T19:44:41.987Z,2.40
2023-12-20T19:47:11.583Z,2.70
2023-12-20T19:49:42.098Z,3.10
2023-12-20T19:52:12.290Z,2.83
2023-12-20T19:54:42.160Z,3.00
2023-12-20T19:57:12.347Z,2.70
2023-12-20T19:59:41.381Z,3.03
2023-12-20T20:02:11.022Z,2.90
2023-12-20T20:04:41.024Z,2.83
2023-12-20T20:07:16.363Z,3.20
2023-12-20T20:09:47.304Z,3.07
2023-12-20T20:12:17.065Z,3.40
2023-12-20T20:14:45.338Z,3.20
2023-12-20T20:17:13.582Z,3.10
2023-12-20T20:19:42.239Z,3.10
2023-12-20T20:22:10.455Z,3.23
2023-12-20T20:24:38.912Z,2.97
2023-12-20T20:27:07.023Z,3.20
2023-12-20T20:29:35.129Z,3.00
2023-12-20T20:32:03.402Z,2.93
2023-12-20T20:34:31.645Z,2.90
2023-12-20T20:36:59.793Z,3.10
2023-12-20T20:39:27.912Z,2.70
2023-12-20T20:41:56.039Z,3.03
2023-12-20T20:44:24.192Z,2.77
2023-12-20T20:46:52.669Z,2.70
2023-12-20T20:49:20.958Z,2.37
2023-12-20T20:51:49.110Z,2.63
2023-12-20T20:54:19.149Z,2.43
2023-12-20T20:56:48.155Z,2.80
2023-12-20T20:59:17.616Z,2.73
2023-12-20T21:01:50.241Z,2.63
2023-12-20T21:04:17.814Z,2.50
2023-12-20T21:06:48.587Z,2.90
2023-12-20T21:09:15.543Z,2.70
2023-12-20T21:11:43.041Z,2.60
2023-12-20T21:14:10.002Z,2.40
2023-12-20T21:16:37.138Z,2.73
2023-12-20T21:19:07.129Z,2.50
2023-12-20T21:21:34.693Z,3.07
2023-12-20T21:24:01.716Z,2.63
2023-12-20T21:26:28.633Z,2.40
2023-12-20T21:28:56.296Z,2.50
2023-12-20T21:31:23.406Z,2.60
2023-12-20T21:33:53.750Z,2.50
2023-12-20T21:36:21.331Z,2.37
2023-12-20T21:38:48.237Z,2.20
2023-12-20T21:41:22.943Z,2.30
2023-12-20T21:43:51.129Z,2.40
2023-12-20T21:46:18.573Z,2.10
2023-12-20T21:48:45.677Z,2.50
2023-12-20T21:51:12.905Z,2.03
2023-12-20T21:53:40.632Z,2.20
2023-12-20T21:56:07.781Z,2.17
2023-12-20T21:58:34.786Z,2.00
2023-12-20T22:01:03.887Z,2.10
2023-12-20T22:03:33.578Z,2.07
2023-12-20T22:06:00.649Z,2.10
2023-12-20T22:08:27.724Z,2.10
2023-12-20T22:10:57.455Z,2.10
2023-12-20T22:13:24.537Z,2.07
2023-12-20T22:15:51.761Z,2.10
2023-12-20T22:18:18.837Z,2.10
2023-12-20T22:20:45.762Z,2.00
2023-12-20T22:23:12.827Z,2.10
2023-12-20T22:25:39.801Z,2.10
2023-12-20T22:28:07.134Z,1.80
2023-12-20T22:30:34.209Z,1.67
2023-12-20T22:33:01.237Z,1.73
2023-12-20T22:35:28.244Z,2.10
2023-12-20T22:37:55.596Z,1.87
2023-12-20T22:43:43.928Z,1.97
2023-12-20T22:46:11.033Z,2.03
2023-12-20T22:48:40.594Z,1.80
2023-12-20T22:51:08.700Z,2.00
2023-12-20T22:53:35.686Z,2.17
2023-12-20T22:56:02.703Z,2.13
2023-12-20T22:58:29.641Z,2.07
2023-12-20T23:00:56.691Z,2.00
2023-12-20T23:03:27.071Z,1.90
2023-12-20T23:05:54.088Z,1.93
2023-12-20T23:08:21.082Z,2.00
2023-12-20T23:10:48.120Z,1.90
2023-12-20T23:13:15.267Z,2.00
2023-12-20T23:15:42.305Z,1.93
2023-12-20T23:18:09.386Z,1.80
2023-12-20T23:20:36.580Z,1.60
2023-12-20T23:23:03.530Z,1.80
2023-12-20T23:25:30.598Z,1.83
2023-12-20T23:27:57.692Z,1.97
2023-12-20T23:30:24.806Z,1.70
2023-12-20T23:32:51.981Z,1.70
2023-12-20T23:35:19.332Z,1.60
2023-12-20T23:37:47.523Z,1.80
2023-12-20T23:40:14.695Z,1.60
2023-12-20T23:42:41.768Z,1.77
2023-12-20T23:45:09.200Z,1.80
2023-12-20T23:47:36.247Z,1.53
2023-12-20T23:50:03.602Z,1.57
2023-12-20T23:52:31.201Z,1.40
2023-12-20T23:54:58.159Z,1.47
2023-12-20T23:57:25.119Z,1.47
2023-12-20T23:59:52.123Z,1.40
